This is the latest recevied weather packets stored in our database for station/object AD7ZD. If no packets are shown the sender has not sent any weather packets the latest 10 day(s).
| Time | Temp. | Humidity | Pressure | Rain* | Wind** | Luminosity | Snow |
|---|---|---|---|---|---|---|---|
| 1777918185 | 13.33° C | 57% | 1008.7 hPa | 0 mm | - | 269 W/m² | - |
| 1777917884 | 13.33° C | 57% | 1008.7 hPa | 0 mm | - | 269 W/m² | - |
| 1777917581 | 13.33° C | 57% | 1008.7 hPa | 0 mm | - | 269 W/m² | - |
| 1777917278 | 13.89° C | 57% | 1008.5 hPa | 0 mm | - | 281 W/m² | - |
| 1777916976 | 13.89° C | 54% | 1008.4 hPa | 0 mm | - | 285 W/m² | - |
| 1777916673 | 14.44° C | 52% | 1008.3 hPa | 0 mm | - | 237 W/m² | - |
| 1777916371 | 15.56° C | 43% | 1008.4 hPa | 0 mm | - | 199 W/m² | - |
| 1777916067 | 15° C | 43% | 1008.5 hPa | 0 mm | - | 144 W/m² | - |
| 1777915765 | 15.56° C | 42% | 1008.3 hPa | 0 mm | - | 144 W/m² | - |
| 1777915460 | 15.56° C | 42% | 1008.3 hPa | 0 mm | - | 132 W/m² | - |
| 1777915157 | 15.56° C | 41% | 1008.1 hPa | 0 mm | - | 138 W/m² | - |
| 1777914854 | 15.56° C | 42% | 1008 hPa | 0 mm | - | 210 W/m² | - |
| 1777914551 | 15° C | 42% | 1007.9 hPa | 0 mm | - | 239 W/m² | - |
| 1777914247 | 15.56° C | 42% | 1007.7 hPa | 0 mm | - | 317 W/m² | - |
| 1777913944 | 15° C | 42% | 1007.6 hPa | 0 mm | - | 292 W/m² | - |
| 1777913641 | 15.56° C | 41% | 1007.7 hPa | 0 mm | - | 369 W/m² | - |
| 1777913337 | 15° C | 41% | 1007.8 hPa | 0 mm | - | 455 W/m² | - |
| 1777913034 | 15° C | 42% | 1007.8 hPa | 0 mm | - | 268 W/m² | - |
| 1777912730 | 15° C | 40% | 1008 hPa | 0 mm | - | 294 W/m² | - |
| 1777912426 | 15.56° C | 40% | 1007.9 hPa | 0 mm | - | 245 W/m² | - |
| 1777912122 | 16.11° C | 39% | 1007.9 hPa | 0 mm | - | 449 W/m² | - |
| 1777911818 | 15.56° C | 40% | 1008.1 hPa | 0 mm | - | 357 W/m² | - |
| 1777911515 | 15.56° C | 41% | 1008.1 hPa | 0 mm | - | 423 W/m² | - |
| 1777911212 | 15.56° C | 42% | 1007.9 hPa | 0 mm | - | 374 W/m² | - |
| 1777910909 | 14.44° C | 44% | 1008.1 hPa | 0 mm | - | 284 W/m² | - |
* Rain latest hour (hover to see other rain measurements)
** Current wind speed in m/s (hover to see current wind gust speed)